Time;durP1;ratioP1;P1;durP2;ratioP2;P2;SDS_P1;SDS_P2;PMS_P1;PMS_P2;Temp;Humidity;BMP_temperature;BMP_pressure;BME280_temperature;BME280_humidity;BME280_pressure;Samples;Min_cycle;Max_cycle;Signal;HPM_P1;HPM_P2
2022/08/04 00:01:02;;;;;;;13.57;6.10;;;;;;;23.52;48.81;99851.00;5130769;27;20031;-72
2022/08/04 00:03:36;;;;;;;14.02;6.15;;;;;;;23.49;48.89;99854.09;5133020;28;20038;-73
2022/08/04 00:06:10;;;;;;;10.27;5.80;;;;;;;23.42;49.18;99854.91;5129792;28;20043;-75
2022/08/04 00:08:45;;;;;;;11.98;5.80;;;;;;;23.40;49.61;99846.19;5132651;28;20039;-77
2022/08/04 00:11:15;;;;;;;16.00;6.13;;;;;;;23.37;49.29;99856.53;5130891;27;20042;-76
2022/08/04 00:13:44;;;;;;;7.82;5.05;;;;;;;23.32;49.57;99851.72;5134426;27;20039;-72
2022/08/04 00:16:12;;;;;;;7.80;5.10;;;;;;;23.28;49.59;99845.88;5135390;27;20114;-76
2022/08/04 00:18:46;;;;;;;11.25;5.47;;;;;;;23.26;49.41;99852.50;5135864;27;20489;-74
2022/08/04 00:21:14;;;;;;;11.20;5.78;;;;;;;23.23;49.59;99851.06;5136340;27;20454;-74
2022/08/04 00:23:42;;;;;;;8.20;5.68;;;;;;;23.22;49.71;99852.09;5118213;27;20058;-75
2022/08/04 00:26:08;;;;;;;10.48;5.40;;;;;;;23.20;49.52;99861.34;5136009;27;20077;-74
2022/08/04 00:28:36;;;;;;;9.57;5.70;;;;;;;23.17;49.72;99859.88;5136178;27;20027;-76
2022/08/04 00:31:04;;;;;;;11.77;6.25;;;;;;;23.19;49.74;99862.38;5135417;27;20031;-74
2022/08/04 00:33:29;;;;;;;12.07;4.88;;;;;;;23.14;49.99;99857.56;5136515;27;20385;-72
2022/08/04 00:35:56;;;;;;;8.77;4.88;;;;;;;23.13;49.92;99853.22;5133386;27;20042;-74
2022/08/04 00:38:23;;;;;;;9.82;5.35;;;;;;;23.12;50.09;99857.78;5117890;27;20079;-75
2022/08/04 00:40:57;;;;;;;9.35;5.72;;;;;;;23.16;49.88;99856.34;5136359;27;20062;-75
2022/08/04 00:43:31;;;;;;;9.13;5.47;;;;;;;23.14;50.03;99860.28;5135761;27;20045;-76
2022/08/04 00:46:27;;;;;;;9.45;5.20;;;;;;;23.12;49.87;99854.22;5135177;27;20512;-77
2022/08/04 00:49:28;;;;;;;7.00;5.45;;;;;;;23.08;50.04;99866.47;5135259;27;20545;-78
2022/08/04 00:52:09;;;;;;;8.70;5.45;;;;;;;23.02;50.20;99876.16;5123549;27;20043;-80
2022/08/04 00:54:55;;;;;;;6.22;5.00;;;;;;;23.00;50.10;99875.53;5118603;27;20130;-71
2022/08/04 00:57:39;;;;;;;7.32;4.85;;;;;;;23.05;50.14;99881.16;5128156;27;20032;-73
2022/08/04 01:00:13;;;;;;;11.82;5.47;;;;;;;23.06;50.07;99880.13;5128453;27;20080;-71
2022/08/04 01:03:00;;;;;;;6.93;4.78;;;;;;;23.10;49.93;99873.34;5135376;27;20039;-73
2022/08/04 01:06:02;;;;;;;10.38;5.57;;;;;;;23.16;50.03;99871.72;5115215;27;20553;-74
2022/08/04 01:08:28;;;;;;;12.30;6.03;;;;;;;23.20;49.68;99878.44;5117216;27;20038;-74
2022/08/04 01:11:09;;;;;;;10.18;5.65;;;;;;;23.21;49.91;99876.56;5133217;27;20054;-75
2022/08/04 01:13:40;;;;;;;8.18;5.40;;;;;;;23.16;50.00;99883.34;5115994;27;20038;-77
2022/08/04 01:16:07;;;;;;;;;;;;;;;23.10;49.85;99877.88;5132779;27;20035;-77
2022/08/04 01:18:39;;;;;;;10.38;4.95;;;;;;;23.11;49.98;99877.69;5134470;27;19962;-78
2022/08/04 01:21:29;;;;;;;8.27;5.50;;;;;;;23.11;50.01;99882.25;5135025;27;20039;-77
2022/08/04 01:24:03;;;;;;;10.77;5.50;;;;;;;23.08;49.79;99878.09;5135149;27;20477;-76
2022/08/04 01:26:42;;;;;;;8.02;4.72;;;;;;;23.05;49.96;99886.56;5132484;27;20438;-78
2022/08/04 01:29:09;;;;;;;10.32;4.95;;;;;;;23.04;50.13;99884.91;5135318;27;20035;-77
2022/08/04 01:31:59;;;;;;;11.00;5.95;;;;;;;23.08;49.92;99886.19;5135130;27;20058;-76
2022/08/04 01:34:35;;;;;;;11.23;5.80;;;;;;;23.10;49.77;99889.53;5135427;27;20038;-75
2022/08/04 01:37:22;;;;;;;7.50;5.65;;;;;;;23.08;49.84;99886.19;5132156;27;20066;-78
2022/08/04 01:39:59;;;;;;;12.60;5.57;;;;;;;23.04;49.88;99879.50;5134928;27;20401;-77
2022/08/04 01:42:25;;;;;;;18.98;6.07;;;;;;;23.00;50.08;99889.03;5120553;27;20027;-76
2022/08/04 01:44:54;;;;;;;13.35;6.53;;;;;;;23.00;50.05;99894.44;5114720;28;20061;-78
2022/08/04 01:47:20;;;;;;;10.82;5.70;;;;;;;22.99;50.03;99892.75;5107411;27;20058;-76
2022/08/04 01:49:48;;;;;;;8.70;5.53;;;;;;;23.00;49.86;99894.44;5126677;27;20044;-78
2022/08/04 01:52:16;;;;;;;9.43;6.07;;;;;;;22.98;50.00;99888.38;5134090;27;20073;-78
2022/08/04 01:54:43;;;;;;;14.93;7.03;;;;;;;22.97;49.77;99884.00;5134704;27;20043;-76
2022/08/04 01:57:10;;;;;;;14.52;6.75;;;;;;;22.99;50.03;99887.34;5133917;27;20123;-76
2022/08/04 01:59:37;;;;;;;14.55;6.68;;;;;;;22.99;49.77;99892.75;5134779;27;20027;-79
2022/08/04 02:02:04;;;;;;;17.42;7.53;;;;;;;22.94;50.12;99906.81;5134776;27;20080;-78
2022/08/04 02:04:30;;;;;;;8.70;6.82;;;;;;;22.89;50.12;99903.88;5107800;28;20484;-76
2022/08/04 02:07:13;;;;;;;12.45;6.60;;;;;;;22.88;50.10;99898.66;5126895;27;20064;-77
2022/08/04 02:10:02;;;;;;;16.73;6.38;;;;;;;22.85;49.91;99892.63;5134767;27;20087;-76
2022/08/04 02:12:41;;;;;;;9.60;6.82;;;;;;;22.91;49.92;99893.72;5084989;27;20039;-78
2022/08/04 02:15:06;;;;;;;10.20;6.45;;;;;;;22.94;50.04;99895.19;5134615;27;20031;-79
2022/08/04 02:18:00;;;;;;;21.30;8.02;;;;;;;22.92;49.99;99895.41;5133492;27;20087;-75
2022/08/04 02:20:34;;;;;;;14.70;7.63;;;;;;;22.90;50.17;99894.75;5077441;27;20459;-77
2022/08/04 02:23:05;;;;;;;11.50;6.80;;;;;;;22.89;49.96;99894.91;5134292;27;20035;-77
2022/08/04 02:26:00;;;;;;;14.15;8.20;;;;;;;22.90;50.36;99894.75;5115075;27;20473;-75
2022/08/04 02:29:12;;;;;;;14.40;7.40;;;;;;;22.88;50.24;99893.25;5122489;27;20050;-77
2022/08/04 02:31:40;;;;;;;12.98;7.18;;;;;;;22.88;50.52;99895.94;5113738;28;20025;-77
2022/08/04 02:34:24;;;;;;;10.48;7.75;;;;;;;22.90;50.46;99899.28;5095277;28;20042;-77
2022/08/04 02:36:51;;;;;;;16.13;8.02;;;;;;;22.90;50.50;99904.69;5123482;27;20031;-78
2022/08/04 02:39:19;;;;;;;15.52;7.97;;;;;;;22.93;50.41;99890.81;5133272;27;20076;-77
2022/08/04 02:41:46;;;;;;;14.45;7.38;;;;;;;22.98;50.20;99904.56;5130204;27;20020;-80
2022/08/04 02:44:18;;;;;;;12.65;7.57;;;;;;;23.00;50.35;99906.03;5133430;27;20031;-79
2022/08/04 02:46:50;;;;;;;13.18;7.15;;;;;;;23.00;50.37;99907.91;5133879;27;20034;-79
2022/08/04 02:49:17;;;;;;;10.73;7.60;;;;;;;23.00;50.15;99902.53;5133294;27;20394;-76
2022/08/04 02:51:50;;;;;;;20.75;9.07;;;;;;;22.99;50.28;99906.25;5131469;27;20440;-77
2022/08/04 02:54:18;;;;;;;11.90;7.55;;;;;;;22.99;50.25;99906.25;5133778;27;20035;-79
2022/08/04 02:56:45;;;;;;;14.75;6.90;;;;;;;23.07;50.09;99916.06;5133869;27;20023;-77
2022/08/04 02:59:13;;;;;;;11.73;7.75;;;;;;;23.10;50.44;99910.25;5115116;28;20072;-77
2022/08/04 03:01:41;;;;;;;12.98;7.82;;;;;;;23.10;49.99;99913.81;5123673;27;20095;-77
2022/08/04 03:04:33;;;;;;;13.25;7.60;;;;;;;23.13;50.22;99915.28;5133854;27;20187;-76
2022/08/04 03:07:30;;;;;;;16.45;8.38;;;;;;;23.14;50.34;99915.09;5133460;27;20054;-77
2022/08/04 03:10:13;;;;;;;15.05;8.80;;;;;;;23.13;50.46;99918.84;5132017;28;20046;-77
2022/08/04 03:13:16;;;;;;;15.15;7.88;;;;;;;23.12;50.74;99919.84;5132148;28;20501;-77
2022/08/04 03:16:00;;;;;;;17.55;8.80;;;;;;;23.14;50.66;99928.59;5114275;28;20027;-76
2022/08/04 03:18:46;;;;;;;17.58;8.10;;;;;;;23.15;50.83;99924.88;5131931;28;20061;-77
2022/08/04 03:21:49;;;;;;;20.77;8.85;;;;;;;23.14;50.79;99925.06;5119814;28;20065;-77
2022/08/04 03:24:55;;;;;;;21.80;10.95;;;;;;;23.14;50.99;99925.91;5133987;28;20390;-77
2022/08/04 03:28:12;;;;;;;20.92;9.90;;;;;;;23.26;50.95;99934.31;5128598;27;20043;-76
2022/08/04 03:30:47;;;;;;;18.40;8.27;;;;;;;23.47;50.05;99925.34;5104043;27;20035;-76
2022/08/04 03:33:50;;;;;;;17.73;8.20;;;;;;;23.56;50.21;99931.44;5133674;28;20043;-76
2022/08/04 03:36:46;;;;;;;21.25;9.13;;;;;;;23.56;50.09;99925.22;5130873;27;20478;-75
2022/08/04 03:39:29;;;;;;;11.80;8.32;;;;;;;23.57;50.32;99933.13;5113057;28;20041;-76
2022/08/04 03:42:22;;;;;;;30.63;9.85;;;;;;;23.63;50.56;99936.88;5112850;28;20035;-76
2022/08/04 03:45:06;;;;;;;18.02;8.57;;;;;;;23.65;50.33;99932.13;5119026;28;20043;-76
2022/08/04 03:47:39;;;;;;;16.40;8.07;;;;;;;23.70;50.10;99929.69;5130985;27;20035;-75
2022/08/04 03:50:41;;;;;;;18.38;8.07;;;;;;;23.75;50.16;99939.88;5134587;27;20027;-75
2022/08/04 03:53:41;;;;;;;16.65;8.88;;;;;;;23.80;50.24;99939.28;5137361;27;20456;-76
2022/08/04 03:56:33;;;;;;;14.73;8.43;;;;;;;23.89;49.87;99940.81;5126879;27;20027;-77
2022/08/04 03:59:24;;;;;;;16.05;9.38;;;;;;;24.01;48.89;99941.97;5095198;27;20138;-77
2022/08/04 04:02:07;;;;;;;19.33;7.72;;;;;;;24.18;48.84;99941.63;5105169;27;20043;-76
2022/08/04 04:04:51;;;;;;;12.13;7.63;;;;;;;24.29;47.98;99941.06;5136931;27;20378;-77
2022/08/04 04:07:34;;;;;;;17.20;8.40;;;;;;;24.36;47.49;99944.59;5135886;27;20047;-77
2022/08/04 04:10:09;;;;;;;12.88;9.40;;;;;;;24.42;47.34;99951.06;5135073;27;20286;-77
2022/08/04 04:13:00;;;;;;;14.38;7.80;;;;;;;24.46;47.24;99955.06;5137037;27;20037;-77
2022/08/04 04:15:39;;;;;;;16.85;8.07;;;;;;;24.49;47.17;99957.38;5135663;27;20027;-77
2022/08/04 04:18:26;;;;;;;15.02;7.60;;;;;;;24.50;47.23;99950.06;5132779;27;20117;-78
2022/08/04 04:21:13;;;;;;;13.27;6.70;;;;;;;24.47;46.82;99950.50;5136323;27;20512;-78
2022/08/04 04:24:25;;;;;;;8.23;5.85;;;;;;;24.49;46.78;99956.50;5137071;27;20042;-77
2022/08/04 04:27:01;;;;;;;13.98;6.40;;;;;;;24.55;46.64;99950.31;5020988;28;20061;-78
2022/08/04 04:29:32;;;;;;;11.25;6.40;;;;;;;24.63;46.12;99958.22;5032710;28;20567;-76
2022/08/04 04:32:20;;;;;;;7.80;5.47;;;;;;;24.71;46.09;99951.00;5091701;27;20035;-78
2022/08/04 04:35:13;;;;;;;10.80;6.20;;;;;;;24.79;45.86;99961.63;5120666;27;20038;-80
2022/08/04 04:37:45;;;;;;;9.88;5.53;;;;;;;24.91;45.41;99959.16;5127178;27;20023;-76
2022/08/04 04:40:35;;;;;;;8.25;4.80;;;;;;;25.01;44.93;99958.78;5136260;27;20063;-78
2022/08/04 04:43:25;;;;;;;12.45;5.70;;;;;;;25.14;44.75;99961.50;5129939;27;20073;-77
2022/08/04 04:46:04;;;;;;;11.05;5.63;;;;;;;25.36;44.30;99950.50;5120153;27;20506;-75
2022/08/04 04:48:41;;;;;;;11.02;5.45;;;;;;;25.68;43.58;99947.97;5118468;27;20149;-77
2022/08/04 04:51:20;;;;;;;9.80;5.18;;;;;;;26.07;43.07;99962.50;5129690;27;20034;-77
2022/08/04 04:54:26;;;;;;;9.93;5.28;;;;;;;26.42;42.50;99950.53;5136269;27;20083;-75
2022/08/04 04:57:08;;;;;;;9.02;5.10;;;;;;;26.73;41.57;99959.78;5086651;27;20042;-75
2022/08/04 04:59:41;;;;;;;10.52;5.15;;;;;;;26.95;40.67;99971.16;5135184;27;20034;-79
2022/08/04 05:02:18;;;;;;;11.98;5.00;;;;;;;27.10;39.92;99962.69;5133122;27;20387;-76
2022/08/04 05:05:10;;;;;;;13.43;5.70;;;;;;;27.14;40.02;99966.63;5117041;27;20058;-77
2022/08/04 05:08:06;;;;;;;7.88;4.47;;;;;;;27.40;40.09;99976.47;5118469;27;20047;-75
2022/08/04 05:10:43;;;;;;;13.43;4.50;;;;;;;27.63;39.90;99968.81;5134701;27;20520;-75
2022/08/04 05:13:19;;;;;;;9.90;4.90;;;;;;;27.80;39.59;99974.47;5136138;27;20473;-76
2022/08/04 05:15:48;;;;;;;11.77;4.90;;;;;;;27.98;39.08;99979.09;5135705;27;20493;-79
2022/08/04 05:18:21;;;;;;;9.15;4.85;;;;;;;28.14;39.10;99972.28;5135198;27;20080;-76
2022/08/04 05:21:03;;;;;;;6.13;4.47;;;;;;;28.29;38.99;99971.88;5125456;27;20036;-77
2022/08/04 05:23:33;;;;;;;8.07;4.50;;;;;;;28.45;38.56;99973.19;5135157;27;20066;-76
2022/08/04 05:26:03;;;;;;;10.30;5.25;;;;;;;28.57;38.81;99967.78;5115040;27;20062;-76
2022/08/04 05:28:40;;;;;;;11.32;4.57;;;;;;;28.68;38.55;99972.44;5129580;27;20026;-76
2022/08/04 05:31:11;;;;;;;11.30;5.50;;;;;;;28.75;37.64;99965.06;5133140;27;20035;-75
2022/08/04 05:33:46;;;;;;;9.25;4.10;;;;;;;28.77;37.22;99967.53;5135077;27;20031;-76
2022/08/04 05:36:16;;;;;;;8.30;4.93;;;;;;;28.82;37.22;99972.31;5133037;27;20058;-76
2022/08/04 05:38:43;;;;;;;8.68;4.05;;;;;;;28.85;37.41;99960.94;5135280;27;20109;-76
2022/08/04 05:41:10;;;;;;;11.57;4.55;;;;;;;28.89;37.35;99964.84;5134875;27;20035;-76
2022/08/04 05:43:42;;;;;;;15.55;5.15;;;;;;;28.86;36.38;99960.72;5134941;27;20511;-76
2022/08/04 05:46:08;;;;;;;9.85;3.58;;;;;;;28.89;36.14;99962.13;5133161;27;20035;-77
2022/08/04 05:48:36;;;;;;;8.35;3.83;;;;;;;28.86;36.00;99965.31;5133900;27;20080;-77
2022/08/04 05:51:03;;;;;;;7.60;3.13;;;;;;;28.82;36.31;99964.97;5133704;27;20031;-74
2022/08/04 05:53:30;;;;;;;13.05;3.60;;;;;;;28.82;36.15;99964.97;5134696;27;20505;-74
2022/08/04 05:55:57;;;;;;;9.75;4.03;;;;;;;28.89;36.80;99968.44;5112771;28;20032;-76
2022/08/04 05:58:24;;;;;;;8.32;3.67;;;;;;;28.95;35.48;99963.94;5114551;28;20043;-74
2022/08/04 06:00:51;;;;;;;6.07;3.33;;;;;;;28.94;36.13;99962.28;5130122;27;20171;-75
2022/08/04 06:03:20;;;;;;;15.23;3.63;;;;;;;28.93;35.46;99960.63;5130317;27;20062;-72
2022/08/04 06:05:47;;;;;;;9.52;3.90;;;;;;;28.84;35.94;99973.72;5113693;28;20040;-73
2022/08/04 06:08:12;;;;;;;9.60;3.38;;;;;;;28.80;35.76;99967.06;5131780;27;20035;-74
2022/08/04 06:10:40;;;;;;;6.03;3.00;;;;;;;28.74;35.33;99973.47;5133067;27;20038;-72
2022/08/04 06:13:10;;;;;;;10.40;3.20;;;;;;;28.45;35.05;99968.56;5133877;27;20037;-72
2022/08/04 06:15:39;;;;;;;8.80;3.35;;;;;;;28.20;36.16;99965.91;5134482;27;20511;-74
2022/08/04 06:18:08;;;;;;;7.38;3.63;;;;;;;27.97;36.57;99959.25;5116298;27;20092;-73
2022/08/04 06:20:35;;;;;;;3.83;2.72;;;;;;;27.80;37.20;99958.16;5120789;27;20019;-74
2022/08/04 06:23:08;;;;;;;13.20;3.90;;;;;;;27.71;37.63;99958.47;5134085;27;20097;-73
2022/08/04 06:25:43;;;;;;;11.75;3.53;;;;;;;27.64;37.35;99971.28;5133599;27;20031;-73
2022/08/04 06:28:09;;;;;;;6.68;2.40;;;;;;;27.56;36.41;99961.53;5126708;27;20027;-73
2022/08/04 06:30:36;;;;;;;5.45;2.65;;;;;;;27.53;36.43;99961.97;5133687;27;20038;-73
2022/08/04 06:33:12;;;;;;;9.82;3.38;;;;;;;27.47;36.51;99959.31;5134607;27;20554;-73
2022/08/04 06:35:39;;;;;;;6.40;3.17;;;;;;;27.42;36.50;99963.47;5133426;27;20037;-73
2022/08/04 06:38:06;;;;;;;8.77;2.92;;;;;;;27.42;36.93;99962.66;5132398;27;20130;-76
2022/08/04 06:40:33;;;;;;;4.65;2.22;;;;;;;27.39;36.93;99966.66;5133830;27;20041;-72
2022/08/04 06:43:01;;;;;;;7.82;2.92;;;;;;;27.37;36.43;99976.91;5134187;27;20457;-76
2022/08/04 06:45:27;;;;;;;3.78;2.70;;;;;;;27.36;36.68;99975.25;5133820;27;20102;-76
2022/08/04 06:47:54;;;;;;;6.28;2.38;;;;;;;27.30;35.95;99970.69;5133560;27;20042;-75
2022/08/04 06:50:21;;;;;;;6.28;2.20;;;;;;;27.23;36.26;99969.94;5131450;27;20033;-75
2022/08/04 06:52:47;;;;;;;9.75;2.58;;;;;;;27.22;36.49;99971.78;5128077;27;20035;-74
2022/08/04 06:55:12;;;;;;;10.00;2.30;;;;;;;27.21;36.42;99967.41;5133210;27;20166;-76
2022/08/04 06:57:40;;;;;;;4.78;2.70;;;;;;;27.22;36.26;99968.25;5133705;27;20027;-78
2022/08/04 07:00:10;;;;;;;5.15;2.15;;;;;;;27.22;36.40;99968.25;5133512;27;20418;-74
2022/08/04 07:02:43;;;;;;;6.07;2.30;;;;;;;27.24;35.91;99966.16;5133330;28;20027;-74
2022/08/04 07:05:10;;;;;;;4.53;2.05;;;;;;;27.24;35.79;99972.41;5131733;27;20035;-75
2022/08/04 07:07:36;;;;;;;7.05;2.33;;;;;;;27.22;35.06;99962.81;5133325;27;20043;-76
2022/08/04 07:10:02;;;;;;;5.38;2.35;;;;;;;27.21;35.23;99964.69;5133228;27;20091;-73
2022/08/04 07:12:29;;;;;;;7.57;2.35;;;;;;;27.21;35.51;99961.16;5132958;28;20154;-77
2022/08/04 07:14:55;;;;;;;11.43;2.80;;;;;;;27.23;35.78;99964.50;5130497;28;20039;-74
2022/08/04 07:17:22;;;;;;;6.70;2.85;;;;;;;27.19;35.57;99957.81;5133233;27;20038;-76
2022/08/04 07:19:48;;;;;;;5.72;2.65;;;;;;;27.18;35.24;99961.59;5133480;28;20031;-75
2022/08/04 07:22:15;;;;;;;9.02;2.97;;;;;;;27.16;34.98;99959.13;5132550;27;20050;-76
2022/08/04 07:24:41;;;;;;;4.90;2.60;;;;;;;27.15;35.17;99957.44;5137629;27;20408;-75
2022/08/04 07:27:07;;;;;;;6.63;2.38;;;;;;;27.15;35.22;99962.03;5137050;27;20130;-74
2022/08/04 07:29:36;;;;;;;4.10;2.55;;;;;;;27.15;35.55;99960.16;5137112;27;20126;-75
2022/08/04 07:32:03;;;;;;;8.10;2.75;;;;;;;27.15;35.47;99953.88;5136705;27;20436;-74
2022/08/04 07:34:30;;;;;;;6.32;2.85;;;;;;;27.16;35.53;99948.25;5137834;27;20115;-75
2022/08/04 07:36:58;;;;;;;7.50;2.70;;;;;;;27.17;35.52;99959.94;5135988;27;20027;-74
2022/08/04 07:39:27;;;;;;;16.20;2.35;;;;;;;27.15;35.52;99945.72;5137196;27;20041;-73
2022/08/04 07:41:54;;;;;;;5.75;2.40;;;;;;;27.15;35.63;99946.59;5136505;27;20188;-73
2022/08/04 07:44:19;;;;;;;6.40;3.05;;;;;;;27.15;35.59;99960.16;5137191;27;20115;-72
2022/08/04 07:46:47;;;;;;;7.78;2.47;;;;;;;27.16;35.52;99948.25;5129476;27;20161;-76
2022/08/04 07:49:14;;;;;;;6.38;2.67;;;;;;;27.18;35.52;99950.72;5128983;27;20042;-77
2022/08/04 07:51:39;;;;;;;13.98;2.80;;;;;;;27.19;35.39;99945.09;5135323;27;20031;-76
2022/08/04 07:54:08;;;;;;;5.50;3.15;;;;;;;27.20;34.75;99949.47;5136394;27;20039;-73
2022/08/04 07:56:38;;;;;;;6.72;2.35;;;;;;;27.17;34.72;99949.06;5110935;28;20559;-76
2022/08/04 07:59:05;;;;;;;7.13;2.42;;;;;;;27.12;35.00;99947.00;5128551;27;20023;-75
2022/08/04 08:01:31;;;;;;;10.98;2.60;;;;;;;27.14;34.63;99949.50;5136340;27;20221;-75
2022/08/04 08:03:59;;;;;;;5.60;2.50;;;;;;;27.13;34.39;99951.41;5136786;27;20027;-75
2022/08/04 08:06:28;;;;;;;6.25;2.63;;;;;;;27.12;34.28;99955.16;5135999;27;20062;-74
2022/08/04 08:08:55;;;;;;;4.85;2.40;;;;;;;27.07;34.32;99950.41;5136853;27;20493;-78
2022/08/04 08:11:20;;;;;;;7.15;1.98;;;;;;;27.05;34.35;99952.50;5136237;27;20080;-74
2022/08/04 08:13:47;;;;;;;4.88;2.28;;;;;;;26.95;34.39;99952.16;5136702;27;20035;-78
2022/08/04 08:16:13;;;;;;;8.85;2.78;;;;;;;26.93;34.19;99940.69;5130432;27;20076;-78
2022/08/04 08:18:38;;;;;;;5.90;2.78;;;;;;;26.94;34.53;99945.06;5116098;28;20035;-73
2022/08/04 08:21:04;;;;;;;7.13;2.65;;;;;;;27.00;34.20;99944.16;5118650;27;20496;-73
2022/08/04 08:23:33;;;;;;;3.65;2.45;;;;;;;27.02;34.01;99944.78;5136948;27;20023;-75
2022/08/04 08:25:58;;;;;;;7.60;2.58;;;;;;;27.03;33.76;99949.16;5136334;27;20404;-77
2022/08/04 08:28:25;;;;;;;4.97;2.47;;;;;;;27.05;34.02;99948.97;5132723;27;20121;-79
2022/08/04 08:30:50;;;;;;;4.78;2.88;;;;;;;27.04;33.69;99958.16;5134082;27;20122;-75
2022/08/04 08:33:16;;;;;;;14.57;2.60;;;;;;;27.02;34.11;99952.94;5135794;27;20134;-77
2022/08/04 08:35:45;;;;;;;6.43;3.15;;;;;;;26.92;34.41;99947.16;5116258;27;20442;-77
2022/08/04 08:38:13;;;;;;;6.63;3.35;;;;;;;26.92;34.64;99953.41;5135482;27;20031;-77
2022/08/04 08:40:53;;;;;;;3.50;2.90;;;;;;;26.92;34.74;99949.88;5128842;27;20039;-78
2022/08/04 08:43:50;;;;;;;5.30;2.97;;;;;;;26.92;34.50;99953.41;5136204;27;20031;-80
2022/08/04 08:46:57;;;;;;;3.90;2.97;;;;;;;27.00;34.81;99946.06;5044689;27;20069;-77
2022/08/04 08:50:02;;;;;;;7.28;2.97;;;;;;;27.05;34.72;99947.06;5090559;28;20171;-80
2022/08/04 08:52:30;;;;;;;17.13;3.53;;;;;;;27.07;35.00;99949.53;5115190;28;20490;-75
2022/08/04 08:55:34;;;;;;;7.60;3.50;;;;;;;27.09;35.01;99948.28;5120373;27;20035;-75
2022/08/04 08:58:37;;;;;;;3.88;2.92;;;;;;;27.11;35.13;99950.78;5115679;28;20031;-76
2022/08/04 09:01:26;;;;;;;4.82;3.35;;;;;;;27.10;35.30;99936.38;5130390;27;20106;-78
2022/08/04 09:03:55;;;;;;;6.22;3.05;;;;;;;27.13;35.41;99939.72;5130051;27;20121;-76
2022/08/04 09:07:11;;;;;;;18.98;3.92;;;;;;;27.17;35.65;99943.63;5130557;27;20096;-77
2022/08/04 09:09:58;;;;;;;4.45;3.17;;;;;;;27.17;35.29;99946.34;5067923;28;20043;-77
2022/08/04 09:12:34;;;;;;;6.35;3.65;;;;;;;27.17;35.64;99946.34;5129829;27;20058;-76
2022/08/04 09:15:29;;;;;;;6.80;3.28;;;;;;;27.20;35.91;99948.63;5129543;27;20213;-76
2022/08/04 09:18:01;;;;;;;5.97;4.00;;;;;;;27.20;35.45;99952.19;5128834;27;20071;-77
2022/08/04 09:20:35;;;;;;;5.75;3.63;;;;;;;27.23;35.53;99942.75;5133296;27;20172;-76
2022/08/04 09:23:07;;;;;;;11.00;3.75;;;;;;;27.22;35.84;99944.63;5134140;27;20027;-74
2022/08/04 09:26:16;;;;;;;5.40;4.28;;;;;;;27.20;36.15;99943.19;5131930;27;20654;-75
2022/08/04 09:28:58;;;;;;;7.88;4.30;;;;;;;27.15;36.06;99941.16;5072359;27;20064;-74
2022/08/04 09:31:32;;;;;;;7.20;4.10;;;;;;;27.17;36.03;99943.63;5131940;27;20482;-74
2022/08/04 09:34:23;;;;;;;9.95;3.95;;;;;;;27.19;35.87;99936.94;5126086;27;20034;-79
2022/08/04 09:37:31;;;;;;;4.50;3.53;;;;;;;27.21;36.05;99939.44;5116740;27;20088;-75
2022/08/04 09:39:59;;;;;;;6.35;3.83;;;;;;;27.20;36.27;99940.47;5133476;27;20034;-77
2022/08/04 09:42:44;;;;;;;7.90;3.63;;;;;;;27.14;36.46;99939.47;5130998;27;20035;-79
2022/08/04 09:45:18;;;;;;;8.02;4.10;;;;;;;27.11;36.63;99937.19;5131898;27;20443;-78
2022/08/04 09:47:54;;;;;;;10.63;4.85;;;;;;;27.11;36.35;99929.91;5132163;27;20031;-77
2022/08/04 09:50:22;;;;;;;8.82;3.72;;;;;;;27.09;36.52;99934.72;5132661;27;20035;-78
2022/08/04 09:53:19;;;;;;;9.18;3.90;;;;;;;27.12;36.57;99933.44;5129427;27;20428;-78
2022/08/04 09:55:45;;;;;;;9.02;4.60;;;;;;;27.14;36.64;99934.06;5131965;27;20123;-76
2022/08/04 09:58:21;;;;;;;12.48;4.57;;;;;;;27.21;36.41;99931.28;5127401;27;20114;-78
2022/08/04 10:00:52;;;;;;;8.45;4.47;;;;;;;27.26;36.79;99934.19;5130411;27;20042;-74
2022/08/04 10:03:18;;;;;;;;;;;;;;;27.23;36.70;99926.47;5128820;27;20231;-76
2022/08/04 10:06:21;;;;;;;7.18;4.07;;;;;;;27.30;36.66;99931.84;5129347;27;19958;-76
2022/08/04 10:09:25;;;;;;;7.80;4.50;;;;;;;27.27;36.63;99930.41;5126377;27;20537;-75
2022/08/04 10:12:02;;;;;;;8.48;4.90;;;;;;;27.26;37.21;99926.03;5130389;27;20038;-74
2022/08/04 10:14:52;;;;;;;7.78;4.82;;;;;;;27.29;36.67;99928.28;5130412;27;20042;-74
2022/08/04 10:17:44;;;;;;;6.40;4.25;;;;;;;27.26;36.48;99931.47;5126145;27;20102;-76
2022/08/04 10:20:30;;;;;;;7.30;4.78;;;;;;;27.24;36.52;99922.69;5125447;27;20037;-77
2022/08/04 10:23:15;;;;;;;5.95;4.45;;;;;;;27.26;36.74;99929.56;5127763;27;20382;-75
2022/08/04 10:25:58;;;;;;;44.92;6.53;;;;;;;27.29;36.73;99925.56;5090109;27;20099;-74
2022/08/04 10:34:38;;;;;;;8.23;5.20;;;;;;;27.00;37.33;99927.88;5189908;27;20214;-73
2022/08/04 10:37:31;;;;;;;5.28;4.70;;;;;;;26.95;37.39;99920.38;5150686;27;20074;-72
2022/08/04 10:40:39;;;;;;;12.88;5.53;;;;;;;26.94;37.08;99923.34;5170418;27;20042;-73
2022/08/04 10:43:26;;;;;;;5.00;4.55;;;;;;;26.96;37.55;99927.50;5170175;27;20050;-73
2022/08/04 10:45:58;;;;;;;6.22;5.20;;;;;;;27.01;37.73;99940.41;5164619;27;20070;-75
2022/08/04 10:48:56;;;;;;;8.55;5.22;;;;;;;27.04;37.97;99939.97;5168676;27;20076;-67
2022/08/04 10:51:58;;;;;;;7.85;5.65;;;;;;;27.07;38.01;99925.94;5162381;27;20030;-70
2022/08/04 10:54:30;;;;;;;11.13;5.38;;;;;;;27.09;37.46;99931.16;5168504;27;20045;-69
2022/08/04 10:57:02;;;;;;;10.90;5.82;;;;;;;27.09;37.90;99928.44;5167190;27;20485;-70
2022/08/04 10:59:37;;;;;;;5.68;4.70;;;;;;;27.14;37.88;99927.78;5170788;27;20545;-68
2022/08/04 11:02:22;;;;;;;10.65;5.13;;;;;;;27.15;38.07;99922.13;5164428;27;20060;-67
2022/08/04 11:05:18;;;;;;;7.03;5.35;;;;;;;27.18;37.82;99918.97;5171680;27;20078;-66
2022/08/04 11:07:48;;;;;;;6.65;4.97;;;;;;;27.22;37.43;99919.38;5162857;27;20496;-70
2022/08/04 11:10:17;;;;;;;8.70;5.75;;;;;;;27.23;37.60;99923.75;5171054;27;20093;-70
2022/08/04 11:12:44;;;;;;;11.35;6.03;;;;;;;27.25;37.32;99927.06;5152201;27;20038;-69
2022/08/04 11:15:17;;;;;;;7.40;5.28;;;;;;;27.29;37.81;99928.28;5170427;27;20158;-71
2022/08/04 11:17:49;;;;;;;7.75;5.90;;;;;;;27.33;37.44;99931.41;5170767;27;20481;-71
2022/08/04 11:20:55;;;;;;;6.07;5.47;;;;;;;27.29;37.31;99928.28;5169593;27;20030;-72
2022/08/04 11:23:28;;;;;;;7.05;5.40;;;;;;;27.29;37.23;99935.59;5106621;28;20044;-72
2022/08/04 11:26:08;;;;;;;7.13;5.68;;;;;;;27.25;37.16;99932.50;5145577;27;20051;-72
2022/08/04 11:29:15;;;;;;;7.32;6.22;;;;;;;27.21;37.17;99926.66;5150839;27;20500;-71
2022/08/04 11:31:47;;;;;;;8.07;6.07;;;;;;;27.19;37.17;99926.09;5078467;27;20378;-71
2022/08/04 11:34:26;;;;;;;9.10;5.43;;;;;;;27.22;37.49;99931.03;5171380;27;20477;-72
2022/08/04 11:37:01;;;;;;;6.85;5.38;;;;;;;27.24;37.47;99930.84;5167327;27;20030;-71
2022/08/04 11:39:36;;;;;;;7.32;5.28;;;;;;;27.26;37.47;99918.69;5150687;27;20481;-73
2022/08/04 11:42:25;;;;;;;10.98;5.88;;;;;;;27.30;37.52;99915.53;5150561;27;20051;-72
2022/08/04 11:45:11;;;;;;;11.93;6.22;;;;;;;27.33;37.69;99926.78;5139975;27;20083;-72
2022/08/04 11:47:40;;;;;;;8.02;5.57;;;;;;;27.34;37.74;99923.00;5142254;27;20030;-74
2022/08/04 11:50:20;;;;;;;6.38;5.43;;;;;;;27.36;37.92;99926.34;5156269;27;20081;-74
2022/08/04 11:52:47;;;;;;;10.83;6.77;;;;;;;27.36;37.97;99922.78;5141403;27;20042;-72
2022/08/04 11:55:16;;;;;;;9.93;6.85;;;;;;;27.38;37.82;99926.97;5154292;27;20280;-74
2022/08/04 11:57:43;;;;;;;8.98;5.80;;;;;;;27.38;38.07;99929.69;5155966;27;20033;-75
2022/08/04 12:00:14;;;;;;;9.52;6.43;;;;;;;27.38;38.27;99924.25;5154846;27;20393;-72
2022/08/04 12:02:52;;;;;;;12.80;6.47;;;;;;;27.39;38.61;99925.06;5155999;27;20023;-73
2022/08/04 12:05:23;;;;;;;10.35;5.93;;;;;;;27.38;38.40;99923.41;5156580;27;20030;-73
2022/08/04 12:08:26;;;;;;;7.07;6.25;;;;;;;27.39;38.31;99919.63;5155561;27;20485;-73
2022/08/04 12:11:13;;;;;;;9.90;6.72;;;;;;;27.36;38.40;99920.06;5155114;27;20060;-72
2022/08/04 12:14:03;;;;;;;9.07;6.18;;;;;;;27.36;38.29;99922.78;5156062;27;20031;-72
2022/08/04 12:16:41;;;;;;;9.52;6.57;;;;;;;27.37;38.74;99922.56;5149751;27;20027;-72
2022/08/04 12:19:35;;;;;;;9.27;6.55;;;;;;;27.38;38.61;99917.97;5152415;27;20405;-72
2022/08/04 12:22:07;;;;;;;7.82;7.13;;;;;;;27.37;38.40;99917.16;5137026;27;20401;-73